No particular awareness of the weather is required.    There are no Weather-warnings


Nieuwrode (Holsbeek) more information Nieuwrode (Holsbeek)


Thunder radar more information blitzortung!


Rain radar more information rain snow radar



Nearby METAR Reports

  
EBBR - Brussels International Airport, Belgium
Distance from station: W 14km
Updated: 20-08-2018 18:50
Partly Cloudy
Partly Cloudy  
 Wind from N
Wind: N 9 km/h
Temperature:  22°C
Dew Point:  17°C
Humidity:  73%
Barometer:  1020 hPa
Clouds:  Partly Cloudy
Visibility:  10 km
Cloud details:  Partly Cloudy 671 m
2018/08/20 16:50 EBBR 201650Z 35005KT 310V010 9999 SCT022 22/17 Q1020 NOSIG
EBBE - Beauvechain (Bevekom), Belgium
Distance from station: SSE 17km
Updated: 20-08-2018 18:55
Mostly Cloudy
Mostly Cloudy  
 Wind from N
Wind: N 7 km/h
Temperature:  21°C
Dew Point:  17°C
Humidity:  78%
Barometer:  1020 hPa
Clouds:  Mostly Cloudy
Visibility:  10 km
Cloud details:  Mostly Cloudy 945 m
2018/08/20 16:55 EBBE 201655Z AUTO 35004KT 9999 BKN031/// 21/17 Q1020 BLU
EBDT - Schaffen, Belgium
Distance from station: ENE 29km
Updated: 20-08-2018 18:55
Mostly Cloudy
Mostly Cloudy  
 Wind from NNW
Wind: NNW 9 km/h
Temperature:  22°C
Dew Point:  16°C
Humidity:  69%
Barometer:  1020 hPa
Clouds:  Mostly Cloudy
Visibility:  10 km
Cloud details:  Few Clouds 610 m
Mostly Cloudy 1829 m
2018/08/20 16:55 EBDT 201655Z 34005KT 9999 FEW020 BKN060 22/16 Q1020 BLU BLU
EBAW - Antwerp/Deurne, Belgium
Distance from station: NNW 38km
Updated: 20-08-2018 18:50
Mostly Cloudy
Mostly Cloudy  
 Wind from NNW
Wind: NNW 7 km/h
Temperature:  22°C
Dew Point:  16°C
Humidity:  69%
Barometer:  1020 hPa
Clouds:  Mostly Cloudy
Visibility:  10 km
Cloud details:  Partly Cloudy 732 m
Mostly Cloudy 1219 m
2018/08/20 16:50 EBAW 201650Z 34004KT 9999 SCT024 BKN040 22/16 Q1020 NOSIG
EBCI - Charleroi/Gosselies, Belgium
Distance from station: SSW 51km
Updated: 20-08-2018 18:50
Partly Cloudy
Partly Cloudy  
 Wind from W
Wind: W 7 km/h
Temperature:  22°C
Dew Point:  16°C
Humidity:  69%
Barometer:  1021 hPa
Clouds:  Partly Cloudy
Visibility:  10 km
Cloud details:  Partly Cloudy 732 m
2018/08/20 16:50 EBCI 201650Z 28004KT 240V310 9999 SCT024 22/16 Q1021 NOSIG
EBLG - Bierset/Liege, Belgium
Distance from station: ESE 60km
Updated: 20-08-2018 18:50
Few Clouds
Few Clouds  
 Wind from NNW
Wind: NNW 7 km/h
Temperature:  22°C
Dew Point:  16°C
Humidity:  69%
Barometer:  1020 hPa
Clouds:  Few Clouds
Visibility:  10 km
Cloud details:  Few Clouds 884 m
2018/08/20 16:50 EBLG 201650Z 33004KT 300V360 9999 FEW029 22/16 Q1020 NOSIG

Script developed by  Saratoga-weather.org Adapted for the template by  Weerstation Leuven

You find our weather info also at:


Het Weer Aktueel

European Weather Network

Weather Underground

AWEKAS

HAMweather, WeatherForYou, PWS Weather

Equipment we use:


Weather-station
Davis VP2 Plus

Weather-program
Weather Display

Davis VP2 Plus

Weather Display